Time;durP1;ratioP1;P1;durP2;ratioP2;P2;SDS_P1;SDS_P2;PMS_P1;PMS_P2;Temp;Humidity;BMP_temperature;BMP_pressure;BME280_temperature;BME280_humidity;BME280_pressure;Samples;Min_cycle;Max_cycle;Signal;HPM_P1;HPM_P2
2024/01/24 00:01:48;;;;;;;1.30;1.10;;;;;;;;;;6162595;29;20387;-58
2024/01/24 00:04:53;;;;;;;1.23;1.10;;;;;;;;;;6153790;28;20293;-57
2024/01/24 00:07:57;;;;;;;1.10;1.10;;;;;;;;;;6152936;29;20300;-56
2024/01/24 00:11:02;;;;;;;1.13;1.13;;;;;;;;;;6163253;28;20302;-58
2024/01/24 00:14:05;;;;;;;2.00;1.20;;;;;;;;;;6157065;28;20308;-57
2024/01/24 00:17:11;;;;;;;1.70;1.10;;;;;;;;;;6172982;28;20294;-56
2024/01/24 00:20:15;;;;;;;0.90;0.90;;;;;;;;;;6154462;28;20296;-58
2024/01/24 00:23:19;;;;;;;1.57;1.00;;;;;;;;;;6164069;28;20305;-57
2024/01/24 00:26:23;;;;;;;1.00;1.00;;;;;;;;;;6178112;28;20301;-57
2024/01/24 00:29:27;;;;;;;1.50;1.00;;;;;;;;;;6186441;28;20301;-57
2024/01/24 00:32:32;;;;;;;1.50;1.10;;;;;;;;;;6186996;28;20297;-59
2024/01/24 00:35:36;;;;;;;1.00;1.00;;;;;;;;;;6166139;28;20553;-58
2024/01/24 00:38:41;;;;;;;1.23;0.90;;;;;;;;;;6177222;28;20300;-57
2024/01/24 00:41:46;;;;;;;2.50;1.03;;;;;;;;;;6165313;28;20296;-56
2024/01/24 00:44:51;;;;;;;1.10;1.00;;;;;;;;;;6166643;28;20664;-57
2024/01/24 00:47:56;;;;;;;1.37;1.27;;;;;;;;;;6186663;28;20288;-55
2024/01/24 00:51:01;;;;;;;1.20;1.10;;;;;;;;;;6175125;28;20302;-58
2024/01/24 00:54:05;;;;;;;1.10;1.10;;;;;;;;;;6186022;28;20299;-57
2024/01/24 00:57:09;;;;;;;0.93;0.93;;;;;;;;;;6186563;28;20300;-59
2024/01/24 01:00:14;;;;;;;1.80;1.13;;;;;;;;;;6185920;28;20309;-57
2024/01/24 01:03:20;;;;;;;1.43;1.30;;;;;;;;;;6174790;28;20449;-58
2024/01/24 01:06:26;;;;;;;5.10;1.30;;;;;;;;;;6175754;28;20303;-58
2024/01/24 01:09:30;;;;;;;1.20;1.20;;;;;;;;;;6185284;28;20574;-55
2024/01/24 01:12:34;;;;;;;1.13;1.13;;;;;;;;;;6186317;28;20500;-56
2024/01/24 01:15:38;;;;;;;2.83;1.20;;;;;;;;;;6167877;28;20329;-57
2024/01/24 01:18:43;;;;;;;1.13;1.13;;;;;;;;;;6174836;28;20298;-60
2024/01/24 01:21:47;;;;;;;1.13;1.00;;;;;;;;;;6174098;28;20299;-58
2024/01/24 01:24:52;;;;;;;1.30;1.20;;;;;;;;;;6185192;28;20442;-57
2024/01/24 01:27:56;;;;;;;3.50;1.53;;;;;;;;;;6177018;28;20300;-57
2024/01/24 01:31:01;;;;;;;1.50;1.40;;;;;;;;;;6185136;28;20561;-56
2024/01/24 01:34:06;;;;;;;2.30;1.20;;;;;;;;;;6185111;28;20308;-58
2024/01/24 01:37:10;;;;;;;1.40;1.30;;;;;;;;;;6185319;28;20486;-57
2024/01/24 01:40:14;;;;;;;1.90;1.20;;;;;;;;;;6185063;28;20288;-57
2024/01/24 01:43:18;;;;;;;2.23;1.20;;;;;;;;;;6184788;28;20482;-58
2024/01/24 01:46:22;;;;;;;2.17;1.30;;;;;;;;;;6185498;28;20294;-58
2024/01/24 01:49:28;;;;;;;6.87;1.53;;;;;;;;;;6184850;28;20295;-58
2024/01/24 01:52:32;;;;;;;1.90;1.30;;;;;;;;;;6175353;28;20312;-57
2024/01/24 01:55:37;;;;;;;2.67;1.20;;;;;;;;;;6184781;28;20476;-57
2024/01/24 01:58:41;;;;;;;1.30;1.20;;;;;;;;;;6174184;28;20382;-58
2024/01/24 02:01:46;;;;;;;3.93;1.40;;;;;;;;;;6173301;28;20286;-58
2024/01/24 02:04:52;;;;;;;2.50;1.40;;;;;;;;;;6130803;28;20300;-56
2024/01/24 02:07:56;;;;;;;3.57;1.63;;;;;;;;;;6175048;28;20301;-57
2024/01/24 02:11:00;;;;;;;4.07;1.43;;;;;;;;;;6174379;28;20299;-57
2024/01/24 02:14:05;;;;;;;3.50;1.67;;;;;;;;;;6173561;28;20304;-57
2024/01/24 02:17:10;;;;;;;5.90;1.40;;;;;;;;;;6174463;28;20493;-58
2024/01/24 02:20:16;;;;;;;4.33;1.40;;;;;;;;;;6173815;28;20303;-59
2024/01/24 02:23:23;;;;;;;3.37;1.60;;;;;;;;;;6181134;28;20377;-56
2024/01/24 02:26:28;;;;;;;4.83;1.93;;;;;;;;;;6184446;28;20295;-57
2024/01/24 02:29:32;;;;;;;6.70;1.40;;;;;;;;;;6184487;28;20307;-58
2024/01/24 02:32:36;;;;;;;4.17;1.50;;;;;;;;;;6163772;28;20287;-59
2024/01/24 02:35:42;;;;;;;4.90;1.50;;;;;;;;;;6183940;28;20260;-58
2024/01/24 02:38:46;;;;;;;12.43;1.73;;;;;;;;;;6183448;28;20388;-55
2024/01/24 02:41:51;;;;;;;3.67;1.80;;;;;;;;;;6183994;28;20297;-56
2024/01/24 02:44:55;;;;;;;6.03;1.97;;;;;;;;;;6173922;28;20301;-57
2024/01/24 02:47:59;;;;;;;7.90;1.40;;;;;;;;;;6156797;28;20316;-56
2024/01/24 02:51:04;;;;;;;7.33;1.60;;;;;;;;;;6177408;28;20316;-58
2024/01/24 02:54:08;;;;;;;5.37;1.60;;;;;;;;;;6168481;28;20315;-58
2024/01/24 02:57:13;;;;;;;6.57;2.20;;;;;;;;;;6188616;28;20311;-57
2024/01/24 03:00:18;;;;;;;4.33;1.80;;;;;;;;;;6188744;28;20307;-59
2024/01/24 03:03:22;;;;;;;5.20;1.70;;;;;;;;;;6188472;28;20304;-56
2024/01/24 03:06:26;;;;;;;7.87;1.90;;;;;;;;;;6189307;28;20300;-59
2024/01/24 03:09:30;;;;;;;5.43;1.60;;;;;;;;;;6188724;28;20299;-57
2024/01/24 03:12:37;;;;;;;7.83;1.60;;;;;;;;;;6189248;28;20580;-57
2024/01/24 03:15:41;;;;;;;7.00;1.93;;;;;;;;;;6188619;28;20304;-59
2024/01/24 03:18:47;;;;;;;2.70;1.50;;;;;;;;;;6178696;28;20291;-57
2024/01/24 03:21:52;;;;;;;6.67;1.80;;;;;;;;;;6188572;28;20296;-56
2024/01/24 03:24:56;;;;;;;13.47;1.97;;;;;;;;;;6177429;28;20289;-57
2024/01/24 03:28:02;;;;;;;12.27;2.03;;;;;;;;;;6189003;28;20293;-57
2024/01/24 03:31:06;;;;;;;6.43;1.87;;;;;;;;;;6177230;28;20384;-56
2024/01/24 03:34:11;;;;;;;9.10;2.33;;;;;;;;;;6186764;28;20303;-57
2024/01/24 03:37:15;;;;;;;6.47;1.80;;;;;;;;;;6178027;28;20299;-58
2024/01/24 03:40:19;;;;;;;7.10;2.17;;;;;;;;;;6176983;28;20297;-58
2024/01/24 03:43:25;;;;;;;3.07;1.90;;;;;;;;;;6168506;28;20522;-58
2024/01/24 03:46:29;;;;;;;7.83;1.90;;;;;;;;;;6168908;28;20292;-59
2024/01/24 03:49:33;;;;;;;8.93;1.87;;;;;;;;;;6176946;28;20340;-59
2024/01/24 03:52:37;;;;;;;3.60;2.07;;;;;;;;;;6175869;28;20289;-58
2024/01/24 03:55:41;;;;;;;6.20;2.20;;;;;;;;;;6166443;28;20297;-58
2024/01/24 03:58:46;;;;;;;7.73;2.40;;;;;;;;;;6169828;28;20300;-58
2024/01/24 04:01:50;;;;;;;10.63;2.20;;;;;;;;;;6157819;28;20563;-58
2024/01/24 04:04:54;;;;;;;9.70;2.30;;;;;;;;;;6169209;28;20298;-57
2024/01/24 04:07:59;;;;;;;9.97;2.53;;;;;;;;;;6166334;28;20291;-58
2024/01/24 04:11:03;;;;;;;9.40;2.57;;;;;;;;;;6158557;28;20592;-57
2024/01/24 04:14:09;;;;;;;16.83;2.70;;;;;;;;;;6159250;28;20464;-57
2024/01/24 04:17:13;;;;;;;6.80;2.50;;;;;;;;;;6177823;28;20300;-57
2024/01/24 04:20:18;;;;;;;12.13;2.80;;;;;;;;;;6175134;28;20601;-58
2024/01/24 04:23:22;;;;;;;14.77;3.20;;;;;;;;;;6175178;28;20482;-58
2024/01/24 04:26:25;;;;;;;14.57;2.80;;;;;;;;;;6187033;28;20487;-59
2024/01/24 04:29:31;;;;;;;11.43;2.80;;;;;;;;;;6177822;28;20605;-59
2024/01/24 04:32:35;;;;;;;24.83;3.33;;;;;;;;;;6176937;28;20295;-58
2024/01/24 04:35:39;;;;;;;20.27;3.27;;;;;;;;;;6184672;28;20299;-56
2024/01/24 04:38:44;;;;;;;17.07;3.50;;;;;;;;;;6172792;28;20291;-58
2024/01/24 04:41:48;;;;;;;11.47;3.00;;;;;;;;;;6176324;28;20304;-56
2024/01/24 04:44:58;;;;;;;15.47;3.73;;;;;;;;;;6164727;28;20303;-57
2024/01/24 04:48:02;;;;;;;23.73;3.70;;;;;;;;;;6167852;28;20454;-58
2024/01/24 04:51:06;;;;;;;13.40;3.07;;;;;;;;;;6169138;28;20296;-57
2024/01/24 04:54:10;;;;;;;24.03;2.67;;;;;;;;;;6186260;28;20300;-58
2024/01/24 04:57:14;;;;;;;30.40;3.50;;;;;;;;;;6186590;28;20303;-59
2024/01/24 05:00:20;;;;;;;11.00;2.40;;;;;;;;;;6165198;28;20624;-57
2024/01/24 05:03:24;;;;;;;16.43;3.20;;;;;;;;;;6175406;28;20406;-58
2024/01/24 05:06:28;;;;;;;20.50;3.63;;;;;;;;;;6186616;28;20299;-56
2024/01/24 05:09:33;;;;;;;14.27;2.93;;;;;;;;;;6185911;28;20303;-57
2024/01/24 05:12:37;;;;;;;15.07;3.20;;;;;;;;;;6185812;28;20291;-57
2024/01/24 05:15:42;;;;;;;14.43;3.07;;;;;;;;;;6174338;28;20308;-56
2024/01/24 05:18:47;;;;;;;14.57;2.60;;;;;;;;;;6164911;28;20309;-57
2024/01/24 05:21:51;;;;;;;17.63;2.67;;;;;;;;;;6186103;28;20372;-58
2024/01/24 05:24:55;;;;;;;16.10;3.10;;;;;;;;;;6161376;28;20334;-58
2024/01/24 05:28:00;;;;;;;12.87;2.60;;;;;;;;;;6187543;28;20468;-59
2024/01/24 05:31:06;;;;;;;16.73;2.80;;;;;;;;;;6159915;28;20295;-59
2024/01/24 05:34:10;;;;;;;10.50;2.80;;;;;;;;;;6179544;28;20307;-57
2024/01/24 05:37:14;;;;;;;16.17;2.60;;;;;;;;;;6189612;28;20298;-58
2024/01/24 05:40:18;;;;;;;14.50;2.93;;;;;;;;;;6185429;28;20298;-56
2024/01/24 05:43:22;;;;;;;11.63;2.50;;;;;;;;;;6184775;28;20299;-54
2024/01/24 05:46:27;;;;;;;10.50;3.00;;;;;;;;;;6185501;28;20298;-57
2024/01/24 05:49:35;;;;;;;10.13;2.67;;;;;;;;;;6184848;28;20295;-57
2024/01/24 05:52:41;;;;;;;9.93;2.50;;;;;;;;;;6185531;28;20289;-56
2024/01/24 05:55:47;;;;;;;7.47;2.40;;;;;;;;;;6184665;28;20298;-60
2024/01/24 05:58:51;;;;;;;13.60;2.50;;;;;;;;;;6184598;28;20300;-56
2024/01/24 06:01:57;;;;;;;6.17;2.43;;;;;;;;;;6174364;28;20295;-56
2024/01/24 06:05:01;;;;;;;8.40;2.50;;;;;;;;;;6184278;28;20306;-57
2024/01/24 06:08:06;;;;;;;12.57;1.83;;;;;;;;;;6184788;28;20300;-58
2024/01/24 06:11:11;;;;;;;8.53;2.10;;;;;;;;;;6184875;28;20310;-57
2024/01/24 06:14:15;;;;;;;6.10;2.10;;;;;;;;;;6184421;28;20299;-57
2024/01/24 06:17:20;;;;;;;4.90;1.70;;;;;;;;;;6184782;28;20301;-57
2024/01/24 06:20:24;;;;;;;6.63;2.30;;;;;;;;;;6184121;28;20299;-57
2024/01/24 06:23:28;;;;;;;3.13;1.70;;;;;;;;;;6168856;28;20298;-57
2024/01/24 06:26:32;;;;;;;2.87;1.67;;;;;;;;;;6173270;28;20304;-57
2024/01/24 06:29:36;;;;;;;3.03;1.77;;;;;;;;;;6164668;28;20353;-56
2024/01/24 06:33:02;;;;;;;2.40;1.60;;;;;;;;;;6164711;28;20290;-57
2024/01/24 06:36:06;;;;;;;2.23;1.50;;;;;;;;;;6165147;28;20303;-56
2024/01/24 06:39:11;;;;;;;1.47;1.37;;;;;;;;;;6164917;28;20290;-57
2024/01/24 06:42:14;;;;;;;1.60;1.40;;;;;;;;;;6165513;28;20470;-59
2024/01/24 06:45:18;;;;;;;3.37;1.50;;;;;;;;;;6164406;28;20307;-57
2024/01/24 06:48:24;;;;;;;1.80;1.37;;;;;;;;;;6164511;28;20309;-57
2024/01/24 06:51:29;;;;;;;0.90;0.90;;;;;;;;;;6164878;28;20580;-57
2024/01/24 06:54:35;;;;;;;1.30;1.30;;;;;;;;;;6163766;28;20307;-56
2024/01/24 06:57:39;;;;;;;0.90;0.90;;;;;;;;;;6164744;28;20317;-56
2024/01/24 07:00:43;;;;;;;0.97;0.80;;;;;;;;;;6164255;28;20294;-57
2024/01/24 07:03:49;;;;;;;1.00;0.90;;;;;;;;;;6163588;28;20289;-56
2024/01/24 07:06:53;;;;;;;0.93;0.93;;;;;;;;;;6164697;28;20286;-54
2024/01/24 07:09:57;;;;;;;1.23;1.00;;;;;;;;;;6166380;28;20605;-58
2024/01/24 07:13:01;;;;;;;1.00;1.00;;;;;;;;;;6188124;28;20367;-58
2024/01/24 07:16:07;;;;;;;0.90;0.90;;;;;;;;;;6188313;28;20309;-58
2024/01/24 07:19:12;;;;;;;2.07;0.90;;;;;;;;;;6187792;28;20305;-57
2024/01/24 07:22:17;;;;;;;0.90;0.90;;;;;;;;;;6187789;28;20310;-57
2024/01/24 07:25:21;;;;;;;0.73;0.73;;;;;;;;;;6187571;28;20300;-57
2024/01/24 07:28:29;;;;;;;0.70;0.70;;;;;;;;;;6187678;28;20305;-58
2024/01/24 07:31:33;;;;;;;0.90;0.90;;;;;;;;;;6188256;28;20456;-59
2024/01/24 07:34:38;;;;;;;0.80;0.80;;;;;;;;;;6187001;28;20306;-58
2024/01/24 07:37:44;;;;;;;2.30;0.90;;;;;;;;;;6187941;28;20295;-57
2024/01/24 07:40:48;;;;;;;0.80;0.80;;;;;;;;;;6187432;28;20249;-57
2024/01/24 07:43:52;;;;;;;1.37;0.90;;;;;;;;;;6187167;28;20296;-58
2024/01/24 07:46:56;;;;;;;0.87;0.67;;;;;;;;;;6187743;28;20483;-59
2024/01/24 07:50:03;;;;;;;0.83;0.83;;;;;;;;;;6186917;28;20418;-58
2024/01/24 07:53:07;;;;;;;1.40;0.93;;;;;;;;;;6187137;28;20329;-57
2024/01/24 07:56:12;;;;;;;1.00;1.00;;;;;;;;;;6187569;28;20309;-58
2024/01/24 07:59:28;;;;;;;1.80;1.00;;;;;;;;;;6187070;28;20462;-58
2024/01/24 08:02:32;;;;;;;0.70;0.70;;;;;;;;;;6187356;28;20301;-57
2024/01/24 08:05:38;;;;;;;1.70;0.80;;;;;;;;;;6186676;28;20319;-58
2024/01/24 08:08:42;;;;;;;0.80;0.80;;;;;;;;;;6186572;28;20473;-58
2024/01/24 08:11:46;;;;;;;0.83;0.83;;;;;;;;;;6186503;28;20574;-57
2024/01/24 08:14:51;;;;;;;0.80;0.80;;;;;;;;;;6186383;28;20290;-58
2024/01/24 08:17:55;;;;;;;0.70;0.70;;;;;;;;;;6186422;28;20293;-58
2024/01/24 08:21:01;;;;;;;1.60;0.73;;;;;;;;;;6187201;28;20294;-57
2024/01/24 08:24:09;;;;;;;1.07;0.73;;;;;;;;;;6186272;28;20477;-58
2024/01/24 08:27:13;;;;;;;0.97;0.90;;;;;;;;;;6186802;28;20296;-56
2024/01/24 08:30:18;;;;;;;0.80;0.80;;;;;;;;;;6167595;28;20297;-55
2024/01/24 08:33:22;;;;;;;1.00;1.00;;;;;;;;;;6186409;28;20294;-58
2024/01/24 08:36:28;;;;;;;0.80;0.80;;;;;;;;;;6186436;28;20583;-57
2024/01/24 08:39:33;;;;;;;0.80;0.80;;;;;;;;;;6185908;28;20292;-57
2024/01/24 08:42:37;;;;;;;1.03;1.00;;;;;;;;;;6187111;28;20302;-58
2024/01/24 08:45:41;;;;;;;0.80;0.80;;;;;;;;;;6185397;28;20589;-57
2024/01/24 08:48:46;;;;;;;0.97;0.97;;;;;;;;;;6185908;28;20298;-56
2024/01/24 08:51:51;;;;;;;0.80;0.80;;;;;;;;;;6186585;28;20295;-58
2024/01/24 08:54:55;;;;;;;0.97;0.97;;;;;;;;;;6185951;28;20365;-54
2024/01/24 09:01:21;;;;;;;1.07;0.70;;;;;;;;;;6186157;28;20306;-57
2024/01/24 09:04:27;;;;;;;0.73;0.73;;;;;;;;;;6185466;28;20290;-58
2024/01/24 09:07:35;;;;;;;0.80;0.80;;;;;;;;;;6186316;28;20387;-59
2024/01/24 09:10:39;;;;;;;0.77;0.77;;;;;;;;;;6185155;28;20303;-58
2024/01/24 09:13:43;;;;;;;2.57;0.87;;;;;;;;;;6185360;28;20294;-58
2024/01/24 09:16:47;;;;;;;1.07;1.07;;;;;;;;;;6185843;28;20282;-57
2024/01/24 09:19:51;;;;;;;1.43;0.90;;;;;;;;;;6185207;28;20300;-58
2024/01/24 09:22:57;;;;;;;0.70;0.70;;;;;;;;;;6184833;28;20397;-59
2024/01/24 09:26:03;;;;;;;1.53;0.90;;;;;;;;;;6185276;28;20289;-59
2024/01/24 09:29:11;;;;;;;0.80;0.80;;;;;;;;;;6185399;28;20304;-60
2024/01/24 09:32:15;;;;;;;0.90;0.90;;;;;;;;;;6185765;28;20288;-58
2024/01/24 09:35:19;;;;;;;0.70;0.70;;;;;;;;;;6184936;28;20299;-58
2024/01/24 09:38:25;;;;;;;1.00;1.00;;;;;;;;;;6184906;28;20298;-58
2024/01/24 09:41:33;;;;;;;1.07;1.00;;;;;;;;;;6181631;28;20295;-59
2024/01/24 09:44:37;;;;;;;1.07;1.07;;;;;;;;;;6177457;28;20309;-58
2024/01/24 09:47:42;;;;;;;0.80;0.80;;;;;;;;;;6160997;29;20300;-58
2024/01/24 09:50:47;;;;;;;1.43;1.00;;;;;;;;;;6160332;29;20305;-58
2024/01/24 09:53:53;;;;;;;1.00;1.00;;;;;;;;;;6160726;28;20294;-58
2024/01/24 09:56:57;;;;;;;1.57;1.03;;;;;;;;;;6158731;28;20296;-59
2024/01/24 10:00:02;;;;;;;0.80;0.80;;;;;;;;;;6141132;28;20302;-58
2024/01/24 10:03:07;;;;;;;4.33;0.90;;;;;;;;;;6163081;28;20310;-59
2024/01/24 10:06:13;;;;;;;1.07;1.07;;;;;;;;;;6161279;29;20299;-58
2024/01/24 10:09:19;;;;;;;1.90;1.17;;;;;;;;;;6160119;28;20300;-59
2024/01/24 10:12:24;;;;;;;1.00;1.00;;;;;;;;;;6161151;28;20296;-58
2024/01/24 10:15:28;;;;;;;1.30;1.30;;;;;;;;;;6160829;28;20464;-58
2024/01/24 10:18:32;;;;;;;1.50;1.40;;;;;;;;;;6159340;28;20577;-59
2024/01/24 10:21:36;;;;;;;3.63;1.37;;;;;;;;;;6161053;28;20301;-59
2024/01/24 10:24:45;;;;;;;3.57;1.60;;;;;;;;;;6158317;28;20301;-58
2024/01/24 10:27:50;;;;;;;3.37;1.60;;;;;;;;;;6183468;28;20653;-61
2024/01/24 10:30:54;;;;;;;2.50;1.70;;;;;;;;;;6184641;28;20338;-57
2024/01/24 10:33:58;;;;;;;6.33;1.90;;;;;;;;;;6184414;28;20293;-56
2024/01/24 10:37:02;;;;;;;5.43;1.90;;;;;;;;;;6184941;28;20288;-56
2024/01/24 10:40:14;;;;;;;1.70;1.70;;;;;;;;;;6184272;28;20307;-58
2024/01/24 10:43:21;;;;;;;2.93;1.70;;;;;;;;;;6184187;28;20584;-58
2024/01/24 10:46:26;;;;;;;3.40;1.70;;;;;;;;;;6184708;28;20295;-58
2024/01/24 10:49:30;;;;;;;1.63;1.63;;;;;;;;;;6184666;28;20321;-58
2024/01/24 10:52:35;;;;;;;2.53;1.90;;;;;;;;;;6185162;28;20354;-58
2024/01/24 10:55:41;;;;;;;1.67;1.57;;;;;;;;;;6183481;28;20611;-59
2024/01/24 10:58:48;;;;;;;1.77;1.70;;;;;;;;;;6183919;28;20303;-59
2024/01/24 11:01:52;;;;;;;4.47;2.20;;;;;;;;;;6184287;28;20293;-59
2024/01/24 11:04:57;;;;;;;5.83;2.03;;;;;;;;;;6183920;28;20538;-57
2024/01/24 11:08:04;;;;;;;1.97;1.90;;;;;;;;;;6183476;28;20294;-57
2024/01/24 11:11:13;;;;;;;2.67;1.80;;;;;;;;;;6188334;28;20296;-58
2024/01/24 11:14:29;;;;;;;2.10;2.00;;;;;;;;;;6188446;28;20572;-59
2024/01/24 11:17:35;;;;;;;1.80;1.80;;;;;;;;;;6188396;28;20593;-58
2024/01/24 11:20:46;;;;;;;2.17;1.60;;;;;;;;;;6188228;28;20312;-58
2024/01/24 11:23:50;;;;;;;2.00;1.40;;;;;;;;;;6187586;28;20316;-59
2024/01/24 11:26:55;;;;;;;1.53;1.53;;;;;;;;;;6177716;28;20296;-59
2024/01/24 11:30:05;;;;;;;2.10;1.50;;;;;;;;;;6187623;28;20308;-57
2024/01/24 11:33:16;;;;;;;2.83;1.70;;;;;;;;;;6187252;28;20296;-58
2024/01/24 11:36:21;;;;;;;2.90;1.60;;;;;;;;;;6188026;28;20389;-57
2024/01/24 11:39:35;;;;;;;1.63;1.60;;;;;;;;;;6184540;28;20312;-59
2024/01/24 11:42:43;;;;;;;1.67;1.67;;;;;;;;;;6187907;28;20301;-56
2024/01/24 11:45:47;;;;;;;1.80;1.60;;;;;;;;;;6187345;28;20581;-60
2024/01/24 11:48:52;;;;;;;1.70;1.70;;;;;;;;;;6184157;28;20312;-58
2024/01/24 11:52:02;;;;;;;1.70;1.70;;;;;;;;;;6183992;28;20314;-57
2024/01/24 11:55:07;;;;;;;1.80;1.70;;;;;;;;;;6186933;28;20620;-58
2024/01/24 11:58:13;;;;;;;1.90;1.80;;;;;;;;;;6187210;28;20309;-57
2024/01/24 12:01:17;;;;;;;1.93;1.90;;;;;;;;;;6187310;28;20302;-58
2024/01/24 12:04:22;;;;;;;3.90;3.43;;;;;;;;;;6186928;28;20291;-57
2024/01/24 12:07:27;;;;;;;1.93;1.83;;;;;;;;;;6187373;28;20296;-57
2024/01/24 12:10:31;;;;;;;1.90;1.90;;;;;;;;;;6185542;28;20308;-55
2024/01/24 12:13:37;;;;;;;2.00;2.00;;;;;;;;;;6186614;28;20295;-58
2024/01/24 12:16:41;;;;;;;1.80;1.80;;;;;;;;;;6187041;28;20301;-57
2024/01/24 12:19:45;;;;;;;2.00;1.90;;;;;;;;;;6184981;28;20308;-58
2024/01/24 12:22:50;;;;;;;1.90;1.90;;;;;;;;;;6186191;28;20308;-62
2024/01/24 12:25:54;;;;;;;1.93;1.83;;;;;;;;;;6186787;28;20288;-58
2024/01/24 12:29:03;;;;;;;2.30;2.20;;;;;;;;;;6186506;28;20288;-58
2024/01/24 12:32:08;;;;;;;1.90;1.90;;;;;;;;;;6170500;28;20300;-59
2024/01/24 12:35:14;;;;;;;2.00;1.90;;;;;;;;;;6186352;28;20301;-58
2024/01/24 12:38:18;;;;;;;2.47;2.20;;;;;;;;;;6186038;28;20297;-57
2024/01/24 12:41:22;;;;;;;2.20;2.10;;;;;;;;;;6186261;28;20305;-58
2024/01/24 12:44:30;;;;;;;1.93;1.83;;;;;;;;;;6185756;28;20320;-59
2024/01/24 12:47:34;;;;;;;2.07;1.90;;;;;;;;;;6186054;28;20316;-58
2024/01/24 12:50:39;;;;;;;2.10;2.00;;;;;;;;;;6185542;28;20479;-58
2024/01/24 12:53:43;;;;;;;1.90;1.80;;;;;;;;;;6185536;28;20296;-59
2024/01/24 12:56:48;;;;;;;1.97;1.90;;;;;;;;;;6186168;28;20339;-58
2024/01/24 12:59:57;;;;;;;1.60;1.60;;;;;;;;;;6185731;28;20293;-58
2024/01/24 13:03:03;;;;;;;1.87;1.77;;;;;;;;;;6184565;28;20289;-57
2024/01/24 13:06:07;;;;;;;1.70;1.70;;;;;;;;;;6169205;28;20301;-56
2024/01/24 13:09:12;;;;;;;1.67;1.67;;;;;;;;;;6167385;28;20293;-57
2024/01/24 13:12:16;;;;;;;2.00;1.90;;;;;;;;;;6185275;28;20296;-58
2024/01/24 13:15:23;;;;;;;4.60;2.23;;;;;;;;;;6185242;28;20305;-57
2024/01/24 13:18:27;;;;;;;2.07;1.70;;;;;;;;;;6185373;28;20573;-58
2024/01/24 13:21:32;;;;;;;2.00;1.90;;;;;;;;;;6184496;28;20301;-58
2024/01/24 13:24:36;;;;;;;1.67;1.67;;;;;;;;;;6184613;28;20297;-59
2024/01/24 13:27:43;;;;;;;2.10;2.00;;;;;;;;;;6185669;28;20590;-58
2024/01/24 13:30:49;;;;;;;1.97;1.97;;;;;;;;;;6185207;28;20292;-58
2024/01/24 13:33:54;;;;;;;1.93;1.83;;;;;;;;;;6184389;28;20295;-58
2024/01/24 13:36:59;;;;;;;1.60;1.60;;;;;;;;;;6185708;28;20589;-59
2024/01/24 13:40:07;;;;;;;1.80;1.80;;;;;;;;;;6184644;28;20312;-59
2024/01/24 13:43:12;;;;;;;1.60;1.60;;;;;;;;;;6184752;28;20468;-59
2024/01/24 13:46:17;;;;;;;1.93;1.93;;;;;;;;;;6185133;28;20292;-58
2024/01/24 13:49:22;;;;;;;1.93;1.80;;;;;;;;;;6184389;28;20301;-58
2024/01/24 13:52:26;;;;;;;1.83;1.83;;;;;;;;;;6185205;28;20300;-58
2024/01/24 13:55:30;;;;;;;2.33;1.83;;;;;;;;;;6184502;28;20300;-57
2024/01/24 13:58:34;;;;;;;1.93;1.93;;;;;;;;;;6184238;28;20296;-58
2024/01/24 14:01:40;;;;;;;1.93;1.93;;;;;;;;;;6184896;28;20304;-58
2024/01/24 14:04:52;;;;;;;1.57;1.53;;;;;;;;;;6184158;28;20293;-58
2024/01/24 14:07:56;;;;;;;2.07;1.97;;;;;;;;;;6184429;28;20464;-59
2024/01/24 14:11:00;;;;;;;1.67;1.60;;;;;;;;;;6184987;28;20583;-59
2024/01/24 14:14:04;;;;;;;2.70;2.00;;;;;;;;;;6184158;28;20435;-58
2024/01/24 14:17:10;;;;;;;2.10;2.00;;;;;;;;;;6184470;28;20293;-58
2024/01/24 14:20:14;;;;;;;2.23;2.10;;;;;;;;;;6184249;28;20588;-57
2024/01/24 14:23:19;;;;;;;2.43;2.20;;;;;;;;;;6179713;28;20297;-58
2024/01/24 14:26:29;;;;;;;2.60;2.50;;;;;;;;;;6184456;28;20296;-58
2024/01/24 14:29:33;;;;;;;2.23;2.13;;;;;;;;;;6184348;28;20300;-58
2024/01/24 14:32:39;;;;;;;2.87;2.77;;;;;;;;;;6184536;28;20295;-58
2024/01/24 14:35:43;;;;;;;3.00;2.90;;;;;;;;;;6184076;28;20469;-58
2024/01/24 14:38:47;;;;;;;3.37;3.17;;;;;;;;;;6184334;28;20295;-58
2024/01/24 14:41:52;;;;;;;4.03;3.40;;;;;;;;;;6184253;28;20307;-57
2024/01/24 14:44:56;;;;;;;4.37;3.60;;;;;;;;;;6187348;28;20299;-58
2024/01/24 14:48:02;;;;;;;3.97;3.77;;;;;;;;;;6188857;28;20292;-59
2024/01/24 14:51:07;;;;;;;5.03;4.00;;;;;;;;;;6189207;28;20304;-58
2024/01/24 14:54:11;;;;;;;4.43;4.07;;;;;;;;;;6188601;28;20301;-57
2024/01/24 14:57:15;;;;;;;4.50;4.07;;;;;;;;;;6171311;28;20297;-57
2024/01/24 15:00:19;;;;;;;4.50;4.10;;;;;;;;;;6188370;28;20304;-58
2024/01/24 15:03:25;;;;;;;3.90;3.70;;;;;;;;;;6187839;28;20601;-58
2024/01/24 15:06:29;;;;;;;4.27;3.97;;;;;;;;;;6188781;28;20293;-57
2024/01/24 15:09:33;;;;;;;4.37;3.93;;;;;;;;;;6187732;28;20299;-58
2024/01/24 15:12:38;;;;;;;5.53;4.37;;;;;;;;;;6187883;28;20304;-58
2024/01/24 15:15:42;;;;;;;4.77;4.40;;;;;;;;;;6187807;28;20292;-59
2024/01/24 15:18:48;;;;;;;4.63;4.20;;;;;;;;;;6185978;28;20304;-58
2024/01/24 15:21:53;;;;;;;4.93;4.40;;;;;;;;;;6187872;28;20320;-58
2024/01/24 15:25:00;;;;;;;5.00;4.60;;;;;;;;;;6187664;28;20293;-58
2024/01/24 15:28:05;;;;;;;6.43;4.70;;;;;;;;;;6187830;28;20316;-58
2024/01/24 15:31:09;;;;;;;5.43;4.97;;;;;;;;;;6188315;28;20293;-59
2024/01/24 15:34:14;;;;;;;5.57;5.10;;;;;;;;;;6187962;28;20298;-58
2024/01/24 15:37:19;;;;;;;6.53;5.40;;;;;;;;;;6188317;28;20293;-58
2024/01/24 15:40:23;;;;;;;8.67;5.23;;;;;;;;;;6187615;28;20600;-58
2024/01/24 15:43:27;;;;;;;7.67;5.70;;;;;;;;;;6187818;28;20323;-59
2024/01/24 15:46:32;;;;;;;7.63;6.10;;;;;;;;;;6189807;28;20301;-58
2024/01/24 15:49:38;;;;;;;12.27;6.67;;;;;;;;;;6190601;28;20308;-58
2024/01/24 15:52:42;;;;;;;7.97;6.97;;;;;;;;;;6191130;28;20307;-58
2024/01/24 15:55:46;;;;;;;9.50;6.37;;;;;;;;;;6172164;28;20292;-58
2024/01/24 15:58:50;;;;;;;9.83;6.67;;;;;;;;;;6190655;28;20294;-58
2024/01/24 16:01:54;;;;;;;8.50;6.37;;;;;;;;;;6190248;28;20297;-57
2024/01/24 16:05:00;;;;;;;7.73;6.10;;;;;;;;;;6187737;28;20295;-59
2024/01/24 16:08:04;;;;;;;8.73;6.00;;;;;;;;;;6186878;28;20614;-58
2024/01/24 16:11:09;;;;;;;6.67;5.47;;;;;;;;;;6187256;28;20321;-58
2024/01/24 16:14:15;;;;;;;6.57;5.70;;;;;;;;;;6169530;28;20432;-58
2024/01/24 16:17:19;;;;;;;5.77;5.27;;;;;;;;;;6187141;28;20304;-59
2024/01/24 16:20:24;;;;;;;6.10;5.47;;;;;;;;;;6186329;28;20301;-56
2024/01/24 16:23:28;;;;;;;6.47;5.50;;;;;;;;;;6186297;28;20291;-57
2024/01/24 16:26:32;;;;;;;7.40;5.80;;;;;;;;;;6187046;28;20297;-57
2024/01/24 16:29:36;;;;;;;6.33;5.60;;;;;;;;;;6177180;28;20589;-60
2024/01/24 16:32:41;;;;;;;6.23;5.63;;;;;;;;;;6162818;29;20296;-59
2024/01/24 16:35:46;;;;;;;7.13;6.43;;;;;;;;;;6161981;29;20289;-59
2024/01/24 16:38:50;;;;;;;10.63;5.97;;;;;;;;;;6162057;29;20300;-58
2024/01/24 16:41:54;;;;;;;5.70;5.20;;;;;;;;;;6162439;29;20581;-57
2024/01/24 16:44:59;;;;;;;4.93;4.53;;;;;;;;;;6161897;29;20337;-56
2024/01/24 16:48:03;;;;;;;8.50;5.00;;;;;;;;;;6161803;28;20297;-58
2024/01/24 16:51:09;;;;;;;5.63;4.80;;;;;;;;;;6162033;29;20296;-57
2024/01/24 16:54:13;;;;;;;5.37;4.87;;;;;;;;;;6161630;28;20340;-58
2024/01/24 16:57:18;;;;;;;5.03;4.47;;;;;;;;;;6162531;29;20297;-57
2024/01/24 17:00:22;;;;;;;5.17;4.43;;;;;;;;;;6161134;28;20300;-58
2024/01/24 17:03:27;;;;;;;4.40;4.10;;;;;;;;;;6160609;29;20292;-58
2024/01/24 17:06:33;;;;;;;5.30;4.90;;;;;;;;;;6161578;28;20300;-58
2024/01/24 17:09:41;;;;;;;8.70;5.73;;;;;;;;;;6159793;29;20298;-58
2024/01/24 17:12:45;;;;;;;6.70;5.50;;;;;;;;;;6149614;28;20298;-56
2024/01/24 17:15:49;;;;;;;8.07;5.17;;;;;;;;;;6162583;28;20291;-59
2024/01/24 17:18:53;;;;;;;8.97;5.17;;;;;;;;;;6161750;28;20557;-59
2024/01/24 17:21:59;;;;;;;8.87;5.53;;;;;;;;;;6161775;28;20307;-59
2024/01/24 17:25:05;;;;;;;8.07;5.30;;;;;;;;;;6165149;28;20300;-58
2024/01/24 17:28:09;;;;;;;9.97;6.00;;;;;;;;;;6185244;28;20292;-58
2024/01/24 17:31:13;;;;;;;6.47;5.40;;;;;;;;;;6185399;28;20299;-58
2024/01/24 17:34:17;;;;;;;6.07;5.23;;;;;;;;;;6185304;28;20304;-56
2024/01/24 17:37:23;;;;;;;5.57;5.00;;;;;;;;;;6185753;28;20299;-57
2024/01/24 17:40:27;;;;;;;9.80;6.60;;;;;;;;;;6184873;28;20296;-57
2024/01/24 17:43:33;;;;;;;12.67;6.50;;;;;;;;;;6184222;28;20300;-57
2024/01/24 17:46:40;;;;;;;9.10;6.27;;;;;;;;;;6185070;28;20291;-56
2024/01/24 17:49:44;;;;;;;6.63;5.63;;;;;;;;;;6184925;28;20304;-61
2024/01/24 17:52:50;;;;;;;8.90;5.30;;;;;;;;;;6185756;28;20279;-58
2024/01/24 17:55:54;;;;;;;6.57;5.23;;;;;;;;;;6184996;28;20291;-57
2024/01/24 17:58:58;;;;;;;8.53;5.87;;;;;;;;;;6184351;28;20300;-58
2024/01/24 18:02:02;;;;;;;7.33;5.50;;;;;;;;;;6185065;28;20296;-58
2024/01/24 18:05:07;;;;;;;7.83;5.70;;;;;;;;;;6184796;28;20295;-58
2024/01/24 18:08:13;;;;;;;6.67;5.87;;;;;;;;;;6184245;28;20343;-58
2024/01/24 18:11:17;;;;;;;6.73;5.00;;;;;;;;;;6184289;28;20299;-57
2024/01/24 18:14:21;;;;;;;5.57;4.93;;;;;;;;;;6184381;28;20330;-58
2024/01/24 18:17:25;;;;;;;5.63;5.00;;;;;;;;;;6184732;28;20297;-58
2024/01/24 18:20:31;;;;;;;4.90;4.50;;;;;;;;;;6188640;28;20301;-58
2024/01/24 18:23:37;;;;;;;4.63;4.33;;;;;;;;;;6188957;28;20488;-59
2024/01/24 18:26:41;;;;;;;4.33;4.13;;;;;;;;;;6189563;28;20314;-58
2024/01/24 18:29:46;;;;;;;5.57;4.13;;;;;;;;;;6189328;28;20300;-58